sensor_id;sensor_type;location;lat;lon;timestamp;temperature;humidity
7972;DHT22;4031;49.758;6.120;2023-07-20T00:01:23;13.00;99.90
7972;DHT22;4031;49.758;6.120;2023-07-20T00:03:49;12.90;99.90
7972;DHT22;4031;49.758;6.120;2023-07-20T00:06:24;12.80;99.90
7972;DHT22;4031;49.758;6.120;2023-07-20T00:08:55;12.70;99.90
7972;DHT22;4031;49.758;6.120;2023-07-20T00:11:24;12.60;99.90
7972;DHT22;4031;49.758;6.120;2023-07-20T00:13:51;12.50;99.90
7972;DHT22;4031;49.758;6.120;2023-07-20T00:16:17;12.40;99.90
7972;DHT22;4031;49.758;6.120;2023-07-20T00:18:43;12.30;99.90
7972;DHT22;4031;49.758;6.120;2023-07-20T00:21:08;12.30;99.90
7972;DHT22;4031;49.758;6.120;2023-07-20T00:23:34;12.20;99.90
7972;DHT22;4031;49.758;6.120;2023-07-20T00:26:00;12.20;99.90
7972;DHT22;4031;49.758;6.120;2023-07-20T00:28:26;12.20;99.90
7972;DHT22;4031;49.758;6.120;2023-07-20T00:30:52;12.10;99.90
7972;DHT22;4031;49.758;6.120;2023-07-20T00:33:18;12.10;99.90
7972;DHT22;4031;49.758;6.120;2023-07-20T00:35:43;12.10;99.90
7972;DHT22;4031;49.758;6.120;2023-07-20T00:38:09;12.00;99.90
7972;DHT22;4031;49.758;6.120;2023-07-20T00:40:37;12.00;99.90
7972;DHT22;4031;49.758;6.120;2023-07-20T00:43:05;11.90;99.90
7972;DHT22;4031;49.758;6.120;2023-07-20T00:45:33;11.90;99.90
7972;DHT22;4031;49.758;6.120;2023-07-20T00:47:59;11.80;99.90
7972;DHT22;4031;49.758;6.120;2023-07-20T00:50:26;11.80;99.90
7972;DHT22;4031;49.758;6.120;2023-07-20T00:52:54;11.70;99.90
7972;DHT22;4031;49.758;6.120;2023-07-20T00:55:20;11.70;99.90
7972;DHT22;4031;49.758;6.120;2023-07-20T00:57:46;11.60;99.90
7972;DHT22;4031;49.758;6.120;2023-07-20T01:00:12;11.60;99.90
7972;DHT22;4031;49.758;6.120;2023-07-20T01:02:38;11.70;99.90
7972;DHT22;4031;49.758;6.120;2023-07-20T01:05:05;11.70;99.90
7972;DHT22;4031;49.758;6.120;2023-07-20T01:07:38;11.60;99.90
7972;DHT22;4031;49.758;6.120;2023-07-20T01:12:57;11.70;99.90
7972;DHT22;4031;49.758;6.120;2023-07-20T01:15:25;11.70;99.90
7972;DHT22;4031;49.758;6.120;2023-07-20T01:17:51;11.70;99.90
7972;DHT22;4031;49.758;6.120;2023-07-20T01:20:19;11.70;99.90
7972;DHT22;4031;49.758;6.120;2023-07-20T01:26:08;11.60;99.90
7972;DHT22;4031;49.758;6.120;2023-07-20T01:29:22;11.60;99.90
7972;DHT22;4031;49.758;6.120;2023-07-20T01:31:54;11.50;99.90
7972;DHT22;4031;49.758;6.120;2023-07-20T01:34:22;11.50;99.90
7972;DHT22;4031;49.758;6.120;2023-07-20T01:36:50;11.50;99.90
7972;DHT22;4031;49.758;6.120;2023-07-20T01:39:19;11.50;99.90
7972;DHT22;4031;49.758;6.120;2023-07-20T01:41:45;11.50;99.90
7972;DHT22;4031;49.758;6.120;2023-07-20T01:44:12;11.50;99.90
7972;DHT22;4031;49.758;6.120;2023-07-20T01:46:38;11.40;99.90
7972;DHT22;4031;49.758;6.120;2023-07-20T01:49:03;11.30;99.90
7972;DHT22;4031;49.758;6.120;2023-07-20T01:51:29;11.40;99.90
7972;DHT22;4031;49.758;6.120;2023-07-20T01:53:55;11.40;99.90
7972;DHT22;4031;49.758;6.120;2023-07-20T01:56:21;11.40;99.90
7972;DHT22;4031;49.758;6.120;2023-07-20T01:58:46;11.30;99.90
7972;DHT22;4031;49.758;6.120;2023-07-20T02:01:12;11.20;99.90
7972;DHT22;4031;49.758;6.120;2023-07-20T02:03:38;11.20;99.90
7972;DHT22;4031;49.758;6.120;2023-07-20T02:06:03;11.10;99.90
7972;DHT22;4031;49.758;6.120;2023-07-20T02:08:29;11.10;99.90
7972;DHT22;4031;49.758;6.120;2023-07-20T02:10:55;11.10;99.90
7972;DHT22;4031;49.758;6.120;2023-07-20T02:13:21;11.00;99.90
7972;DHT22;4031;49.758;6.120;2023-07-20T02:15:46;11.00;99.90
7972;DHT22;4031;49.758;6.120;2023-07-20T02:18:14;11.00;99.90
7972;DHT22;4031;49.758;6.120;2023-07-20T02:20:41;10.90;99.90
7972;DHT22;4031;49.758;6.120;2023-07-20T02:23:07;10.80;99.90
7972;DHT22;4031;49.758;6.120;2023-07-20T02:25:33;10.80;99.90
7972;DHT22;4031;49.758;6.120;2023-07-20T02:27:59;10.70;99.90
7972;DHT22;4031;49.758;6.120;2023-07-20T02:30:24;10.80;99.90
7972;DHT22;4031;49.758;6.120;2023-07-20T02:32:50;10.80;99.90
7972;DHT22;4031;49.758;6.120;2023-07-20T02:35:16;10.80;99.90
7972;DHT22;4031;49.758;6.120;2023-07-20T02:37:42;10.80;99.90
7972;DHT22;4031;49.758;6.120;2023-07-20T02:40:08;10.80;99.90
7972;DHT22;4031;49.758;6.120;2023-07-20T02:42:34;10.70;99.90
7972;DHT22;4031;49.758;6.120;2023-07-20T02:45:04;10.70;99.90
7972;DHT22;4031;49.758;6.120;2023-07-20T02:47:30;10.70;99.90
7972;DHT22;4031;49.758;6.120;2023-07-20T02:49:56;10.60;99.90
7972;DHT22;4031;49.758;6.120;2023-07-20T02:52:22;10.60;99.90
7972;DHT22;4031;49.758;6.120;2023-07-20T02:54:48;10.70;99.90
7972;DHT22;4031;49.758;6.120;2023-07-20T02:57:14;10.70;99.90
7972;DHT22;4031;49.758;6.120;2023-07-20T02:59:40;10.70;99.90
7972;DHT22;4031;49.758;6.120;2023-07-20T03:02:05;10.70;99.90
7972;DHT22;4031;49.758;6.120;2023-07-20T03:04:35;10.80;99.90
7972;DHT22;4031;49.758;6.120;2023-07-20T03:07:03;10.80;99.90
7972;DHT22;4031;49.758;6.120;2023-07-20T03:09:30;10.90;99.90
7972;DHT22;4031;49.758;6.120;2023-07-20T03:11:55;10.80;99.90
7972;DHT22;4031;49.758;6.120;2023-07-20T03:14:21;10.80;99.90
7972;DHT22;4031;49.758;6.120;2023-07-20T03:16:49;10.70;99.90
7972;DHT22;4031;49.758;6.120;2023-07-20T03:19:15;10.70;99.90
7972;DHT22;4031;49.758;6.120;2023-07-20T03:21:40;10.60;99.90
7972;DHT22;4031;49.758;6.120;2023-07-20T03:24:07;10.50;99.90
7972;DHT22;4031;49.758;6.120;2023-07-20T03:26:34;10.40;99.90
7972;DHT22;4031;49.758;6.120;2023-07-20T03:29:00;10.30;99.90
7972;DHT22;4031;49.758;6.120;2023-07-20T03:31:26;10.30;99.90
7972;DHT22;4031;49.758;6.120;2023-07-20T03:33:52;10.20;99.90
7972;DHT22;4031;49.758;6.120;2023-07-20T03:36:17;10.20;99.90
7972;DHT22;4031;49.758;6.120;2023-07-20T03:38:43;10.20;99.90
7972;DHT22;4031;49.758;6.120;2023-07-20T03:41:09;10.20;99.90
7972;DHT22;4031;49.758;6.120;2023-07-20T03:43:37;10.20;99.90
7972;DHT22;4031;49.758;6.120;2023-07-20T03:46:03;10.20;99.90
7972;DHT22;4031;49.758;6.120;2023-07-20T03:48:33;10.10;99.90
7972;DHT22;4031;49.758;6.120;2023-07-20T03:50:59;10.10;99.90
7972;DHT22;4031;49.758;6.120;2023-07-20T03:53:26;10.00;99.90
7972;DHT22;4031;49.758;6.120;2023-07-20T03:55:52;9.90;99.90
7972;DHT22;4031;49.758;6.120;2023-07-20T03:58:20;9.90;99.90
7972;DHT22;4031;49.758;6.120;2023-07-20T04:00:48;9.90;99.90
7972;DHT22;4031;49.758;6.120;2023-07-20T04:03:16;9.90;99.90
7972;DHT22;4031;49.758;6.120;2023-07-20T04:05:42;9.90;99.90
7972;DHT22;4031;49.758;6.120;2023-07-20T04:08:08;9.90;99.90
7972;DHT22;4031;49.758;6.120;2023-07-20T04:10:34;9.90;99.90
7972;DHT22;4031;49.758;6.120;2023-07-20T04:13:00;10.00;99.90
7972;DHT22;4031;49.758;6.120;2023-07-20T04:15:26;10.00;99.90
7972;DHT22;4031;49.758;6.120;2023-07-20T04:17:52;10.10;99.90
7972;DHT22;4031;49.758;6.120;2023-07-20T04:20:17;10.10;99.90
7972;DHT22;4031;49.758;6.120;2023-07-20T04:22:44;10.20;99.90
7972;DHT22;4031;49.758;6.120;2023-07-20T04:25:09;10.20;99.90
7972;DHT22;4031;49.758;6.120;2023-07-20T04:27:36;10.30;99.90
7972;DHT22;4031;49.758;6.120;2023-07-20T04:30:02;10.30;99.90
7972;DHT22;4031;49.758;6.120;2023-07-20T04:32:29;10.30;99.90
7972;DHT22;4031;49.758;6.120;2023-07-20T04:34:54;10.40;99.90
7972;DHT22;4031;49.758;6.120;2023-07-20T04:37:20;10.30;99.90
7972;DHT22;4031;49.758;6.120;2023-07-20T04:39:46;10.30;99.90
7972;DHT22;4031;49.758;6.120;2023-07-20T04:42:12;10.40;99.90
7972;DHT22;4031;49.758;6.120;2023-07-20T04:44:38;10.40;99.90
7972;DHT22;4031;49.758;6.120;2023-07-20T04:47:04;10.40;99.90
7972;DHT22;4031;49.758;6.120;2023-07-20T04:49:29;10.50;99.90
7972;DHT22;4031;49.758;6.120;2023-07-20T04:51:55;10.50;99.90
7972;DHT22;4031;49.758;6.120;2023-07-20T04:54:21;10.60;99.90
7972;DHT22;4031;49.758;6.120;2023-07-20T04:56:47;10.70;99.90
7972;DHT22;4031;49.758;6.120;2023-07-20T04:59:12;10.80;99.90
7972;DHT22;4031;49.758;6.120;2023-07-20T05:01:38;10.80;99.90
7972;DHT22;4031;49.758;6.120;2023-07-20T05:04:04;10.90;99.90
7972;DHT22;4031;49.758;6.120;2023-07-20T05:06:30;11.00;99.90
7972;DHT22;4031;49.758;6.120;2023-07-20T05:08:56;11.00;99.90
7972;DHT22;4031;49.758;6.120;2023-07-20T05:11:21;11.10;99.90
7972;DHT22;4031;49.758;6.120;2023-07-20T05:13:47;11.20;99.90
7972;DHT22;4031;49.758;6.120;2023-07-20T05:16:13;11.30;99.90
7972;DHT22;4031;49.758;6.120;2023-07-20T05:18:38;11.40;99.90
7972;DHT22;4031;49.758;6.120;2023-07-20T05:21:05;11.50;99.90
7972;DHT22;4031;49.758;6.120;2023-07-20T05:23:31;11.60;99.90
7972;DHT22;4031;49.758;6.120;2023-07-20T05:25:58;11.70;99.90
7972;DHT22;4031;49.758;6.120;2023-07-20T05:28:25;11.70;99.90
7972;DHT22;4031;49.758;6.120;2023-07-20T05:30:55;11.80;99.90
7972;DHT22;4031;49.758;6.120;2023-07-20T05:33:21;11.90;99.90
7972;DHT22;4031;49.758;6.120;2023-07-20T05:35:47;12.00;99.90
7972;DHT22;4031;49.758;6.120;2023-07-20T05:38:13;12.10;99.90
7972;DHT22;4031;49.758;6.120;2023-07-20T05:40:41;12.30;99.90
7972;DHT22;4031;49.758;6.120;2023-07-20T05:43:10;12.50;99.90
7972;DHT22;4031;49.758;6.120;2023-07-20T05:45:36;12.90;99.90
7972;DHT22;4031;49.758;6.120;2023-07-20T05:48:02;13.20;99.90
7972;DHT22;4031;49.758;6.120;2023-07-20T05:50:27;13.50;99.90
7972;DHT22;4031;49.758;6.120;2023-07-20T05:52:54;13.80;99.90
7972;DHT22;4031;49.758;6.120;2023-07-20T05:55:20;14.10;99.90
7972;DHT22;4031;49.758;6.120;2023-07-20T05:57:46;14.30;99.90
7972;DHT22;4031;49.758;6.120;2023-07-20T06:00:13;14.60;99.90
7972;DHT22;4031;49.758;6.120;2023-07-20T06:02:39;14.90;99.90
7972;DHT22;4031;49.758;6.120;2023-07-20T06:05:06;15.20;99.90
7972;DHT22;4031;49.758;6.120;2023-07-20T06:07:36;15.60;99.90
7972;DHT22;4031;49.758;6.120;2023-07-20T06:10:02;15.90;99.90
7972;DHT22;4031;49.758;6.120;2023-07-20T06:12:28;16.20;99.90
7972;DHT22;4031;49.758;6.120;2023-07-20T06:14:54;16.50;99.90
7972;DHT22;4031;49.758;6.120;2023-07-20T06:17:20;16.60;99.90
7972;DHT22;4031;49.758;6.120;2023-07-20T06:19:46;16.50;99.90
7972;DHT22;4031;49.758;6.120;2023-07-20T06:22:12;16.60;99.90
7972;DHT22;4031;49.758;6.120;2023-07-20T06:24:37;16.60;99.90
7972;DHT22;4031;49.758;6.120;2023-07-20T06:27:03;16.60;99.90
7972;DHT22;4031;49.758;6.120;2023-07-20T06:29:31;16.60;99.90
7972;DHT22;4031;49.758;6.120;2023-07-20T06:31:56;16.70;99.90
7972;DHT22;4031;49.758;6.120;2023-07-20T06:34:22;17.00;99.90
7972;DHT22;4031;49.758;6.120;2023-07-20T06:36:48;17.80;99.90
7972;DHT22;4031;49.758;6.120;2023-07-20T06:39:13;18.70;99.90
7972;DHT22;4031;49.758;6.120;2023-07-20T06:41:39;19.80;99.90
7972;DHT22;4031;49.758;6.120;2023-07-20T06:44:05;20.20;99.90
7972;DHT22;4031;49.758;6.120;2023-07-20T06:46:31;20.20;99.90
7972;DHT22;4031;49.758;6.120;2023-07-20T06:48:56;19.80;99.90
7972;DHT22;4031;49.758;6.120;2023-07-20T06:51:22;19.60;99.90
7972;DHT22;4031;49.758;6.120;2023-07-20T06:53:48;19.60;99.90
7972;DHT22;4031;49.758;6.120;2023-07-20T06:56:14;19.50;99.90
7972;DHT22;4031;49.758;6.120;2023-07-20T06:58:39;19.30;99.90
7972;DHT22;4031;49.758;6.120;2023-07-20T07:01:07;19.10;99.90
7972;DHT22;4031;49.758;6.120;2023-07-20T07:03:33;19.00;99.90
7972;DHT22;4031;49.758;6.120;2023-07-20T07:05:59;18.80;99.90
7972;DHT22;4031;49.758;6.120;2023-07-20T07:08:25;18.60;99.90
7972;DHT22;4031;49.758;6.120;2023-07-20T07:10:51;18.50;99.90
7972;DHT22;4031;49.758;6.120;2023-07-20T07:13:17;18.30;99.90
7972;DHT22;4031;49.758;6.120;2023-07-20T07:15:44;18.30;99.90
7972;DHT22;4031;49.758;6.120;2023-07-20T07:18:09;18.40;99.90
7972;DHT22;4031;49.758;6.120;2023-07-20T07:20:35;18.60;99.90
7972;DHT22;4031;49.758;6.120;2023-07-20T07:23:01;18.70;99.90
7972;DHT22;4031;49.758;6.120;2023-07-20T07:25:27;18.80;99.90
7972;DHT22;4031;49.758;6.120;2023-07-20T07:27:54;18.90;99.90
7972;DHT22;4031;49.758;6.120;2023-07-20T07:30:21;19.10;99.90
7972;DHT22;4031;49.758;6.120;2023-07-20T07:32:46;19.40;99.90
7972;DHT22;4031;49.758;6.120;2023-07-20T07:35:12;19.70;99.90
7972;DHT22;4031;49.758;6.120;2023-07-20T07:37:38;20.10;99.90
7972;DHT22;4031;49.758;6.120;2023-07-20T07:40:04;20.40;99.90
7972;DHT22;4031;49.758;6.120;2023-07-20T07:42:32;20.60;99.90
7972;DHT22;4031;49.758;6.120;2023-07-20T07:44:57;20.60;99.90
7972;DHT22;4031;49.758;6.120;2023-07-20T07:47:23;20.30;99.90
7972;DHT22;4031;49.758;6.120;2023-07-20T07:49:49;20.20;99.90
7972;DHT22;4031;49.758;6.120;2023-07-20T07:52:15;20.20;99.90
7972;DHT22;4031;49.758;6.120;2023-07-20T07:54:41;20.20;99.90
7972;DHT22;4031;49.758;6.120;2023-07-20T07:57:06;20.10;99.90
7972;DHT22;4031;49.758;6.120;2023-07-20T07:59:32;20.10;99.90
7972;DHT22;4031;49.758;6.120;2023-07-20T08:02:05;20.00;99.90
7972;DHT22;4031;49.758;6.120;2023-07-20T08:04:31;19.70;99.90
7972;DHT22;4031;49.758;6.120;2023-07-20T08:06:57;19.40;99.90
7972;DHT22;4031;49.758;6.120;2023-07-20T08:09:23;19.20;99.90
7972;DHT22;4031;49.758;6.120;2023-07-20T08:11:48;19.00;99.90
7972;DHT22;4031;49.758;6.120;2023-07-20T08:14:15;18.70;99.90
7972;DHT22;4031;49.758;6.120;2023-07-20T08:16:40;18.70;99.90
7972;DHT22;4031;49.758;6.120;2023-07-20T08:19:06;18.80;99.90
7972;DHT22;4031;49.758;6.120;2023-07-20T08:21:32;19.00;99.90
7972;DHT22;4031;49.758;6.120;2023-07-20T08:23:58;19.20;99.90
7972;DHT22;4031;49.758;6.120;2023-07-20T08:26:24;19.60;99.90
7972;DHT22;4031;49.758;6.120;2023-07-20T08:28:49;20.00;99.90
7972;DHT22;4031;49.758;6.120;2023-07-20T08:31:15;20.60;99.90
7972;DHT22;4031;49.758;6.120;2023-07-20T08:33:41;21.10;99.90
7972;DHT22;4031;49.758;6.120;2023-07-20T08:36:07;21.80;99.90
7972;DHT22;4031;49.758;6.120;2023-07-20T08:38:33;22.40;99.90
7972;DHT22;4031;49.758;6.120;2023-07-20T08:40:59;22.70;99.90
7972;DHT22;4031;49.758;6.120;2023-07-20T08:43:26;23.00;99.90
7972;DHT22;4031;49.758;6.120;2023-07-20T08:45:54;24.00;99.90
7972;DHT22;4031;49.758;6.120;2023-07-20T08:48:21;24.30;99.90
7972;DHT22;4031;49.758;6.120;2023-07-20T08:50:51;25.00;99.90
7972;DHT22;4031;49.758;6.120;2023-07-20T08:53:21;25.60;99.90
7972;DHT22;4031;49.758;6.120;2023-07-20T08:55:50;25.50;99.90
7972;DHT22;4031;49.758;6.120;2023-07-20T08:58:18;25.40;99.90
7972;DHT22;4031;49.758;6.120;2023-07-20T09:00:44;25.90;99.90
7972;DHT22;4031;49.758;6.120;2023-07-20T09:03:11;27.60;99.90
7972;DHT22;4031;49.758;6.120;2023-07-20T09:05:37;28.50;99.90
7972;DHT22;4031;49.758;6.120;2023-07-20T09:08:04;29.70;99.90
7972;DHT22;4031;49.758;6.120;2023-07-20T09:10:30;30.60;99.90
7972;DHT22;4031;49.758;6.120;2023-07-20T09:12:56;31.10;99.90
7972;DHT22;4031;49.758;6.120;2023-07-20T09:15:22;31.30;99.90
7972;DHT22;4031;49.758;6.120;2023-07-20T09:17:51;31.20;99.90
7972;DHT22;4031;49.758;6.120;2023-07-20T09:20:19;31.00;99.90
7972;DHT22;4031;49.758;6.120;2023-07-20T09:22:45;30.70;99.90
7972;DHT22;4031;49.758;6.120;2023-07-20T09:25:15;30.70;99.90
7972;DHT22;4031;49.758;6.120;2023-07-20T09:27:44;30.80;99.90
7972;DHT22;4031;49.758;6.120;2023-07-20T09:30:12;31.10;99.90
7972;DHT22;4031;49.758;6.120;2023-07-20T09:32:41;31.50;99.90
7972;DHT22;4031;49.758;6.120;2023-07-20T09:35:16;31.70;99.90
7972;DHT22;4031;49.758;6.120;2023-07-20T09:37:55;32.20;99.90
7972;DHT22;4031;49.758;6.120;2023-07-20T09:40:24;32.00;99.90
7972;DHT22;4031;49.758;6.120;2023-07-20T09:42:53;31.80;99.50
7972;DHT22;4031;49.758;6.120;2023-07-20T09:45:41;31.70;99.30
7972;DHT22;4031;49.758;6.120;2023-07-20T09:48:08;31.60;98.10
7972;DHT22;4031;49.758;6.120;2023-07-20T09:50:50;31.90;98.20
7972;DHT22;4031;49.758;6.120;2023-07-20T09:53:17;31.90;98.00
7972;DHT22;4031;49.758;6.120;2023-07-20T09:55:47;31.80;96.30
7972;DHT22;4031;49.758;6.120;2023-07-20T09:58:14;31.70;94.10
7972;DHT22;4031;49.758;6.120;2023-07-20T10:00:41;31.10;95.00
7972;DHT22;4031;49.758;6.120;2023-07-20T10:03:14;31.60;94.10
7972;DHT22;4031;49.758;6.120;2023-07-20T10:05:48;32.10;92.40
7972;DHT22;4031;49.758;6.120;2023-07-20T10:08:19;32.60;91.80
7972;DHT22;4031;49.758;6.120;2023-07-20T10:10:47;33.20;90.40
7972;DHT22;4031;49.758;6.120;2023-07-20T10:13:18;33.30;87.60
7972;DHT22;4031;49.758;6.120;2023-07-20T10:15:59;33.40;86.80
7972;DHT22;4031;49.758;6.120;2023-07-20T10:18:31;33.60;82.20
7972;DHT22;4031;49.758;6.120;2023-07-20T10:21:04;33.30;83.70
7972;DHT22;4031;49.758;6.120;2023-07-20T10:23:33;32.90;82.60
7972;DHT22;4031;49.758;6.120;2023-07-20T10:25:59;32.70;81.20
7972;DHT22;4031;49.758;6.120;2023-07-20T10:28:26;32.40;81.90
7972;DHT22;4031;49.758;6.120;2023-07-20T10:30:53;32.40;78.90
7972;DHT22;4031;49.758;6.120;2023-07-20T10:33:20;32.30;80.00
7972;DHT22;4031;49.758;6.120;2023-07-20T10:36:16;32.90;76.30
7972;DHT22;4031;49.758;6.120;2023-07-20T10:38:51;32.90;75.00
7972;DHT22;4031;49.758;6.120;2023-07-20T10:44:04;32.30;74.90
7972;DHT22;4031;49.758;6.120;2023-07-20T10:49:09;32.40;74.10
7972;DHT22;4031;49.758;6.120;2023-07-20T10:56:42;33.00;73.30
7972;DHT22;4031;49.758;6.120;2023-07-20T10:59:19;32.60;71.70
7972;DHT22;4031;49.758;6.120;2023-07-20T11:01:50;32.20;72.00
7972;DHT22;4031;49.758;6.120;2023-07-20T11:04:17;31.30;71.90
7972;DHT22;4031;49.758;6.120;2023-07-20T11:06:46;30.60;72.70
7972;DHT22;4031;49.758;6.120;2023-07-20T11:09:22;30.70;73.20
7972;DHT22;4031;49.758;6.120;2023-07-20T11:12:12;30.60;72.90
7972;DHT22;4031;49.758;6.120;2023-07-20T11:17:14;31.30;71.40
7972;DHT22;4031;49.758;6.120;2023-07-20T11:19:41;31.70;73.80
7972;DHT22;4031;49.758;6.120;2023-07-20T11:22:07;31.80;69.50
7972;DHT22;4031;49.758;6.120;2023-07-20T11:24:39;31.80;71.80
7972;DHT22;4031;49.758;6.120;2023-07-20T11:27:05;32.00;72.00
7972;DHT22;4031;49.758;6.120;2023-07-20T11:29:31;32.20;70.20
7972;DHT22;4031;49.758;6.120;2023-07-20T11:31:57;32.60;69.10
7972;DHT22;4031;49.758;6.120;2023-07-20T11:34:26;32.20;67.80
7972;DHT22;4031;49.758;6.120;2023-07-20T11:36:53;30.90;68.60
7972;DHT22;4031;49.758;6.120;2023-07-20T11:39:21;31.30;70.40
7972;DHT22;4031;49.758;6.120;2023-07-20T11:41:55;31.70;67.10
7972;DHT22;4031;49.758;6.120;2023-07-20T11:44:23;31.20;66.30
7972;DHT22;4031;49.758;6.120;2023-07-20T11:47:04;30.40;67.90
7972;DHT22;4031;49.758;6.120;2023-07-20T11:49:36;30.60;66.20
7972;DHT22;4031;49.758;6.120;2023-07-20T11:52:06;31.20;69.60
7972;DHT22;4031;49.758;6.120;2023-07-20T11:54:34;31.20;66.30
7972;DHT22;4031;49.758;6.120;2023-07-20T11:57:01;31.60;67.10
7972;DHT22;4031;49.758;6.120;2023-07-20T11:59:27;31.00;68.20
7972;DHT22;4031;49.758;6.120;2023-07-20T12:01:53;31.70;66.30
7972;DHT22;4031;49.758;6.120;2023-07-20T12:04:19;32.50;66.30
7972;DHT22;4031;49.758;6.120;2023-07-20T12:06:45;33.00;64.20
7972;DHT22;4031;49.758;6.120;2023-07-20T12:09:16;33.60;63.40
7972;DHT22;4031;49.758;6.120;2023-07-20T12:11:44;33.50;62.10
7972;DHT22;4031;49.758;6.120;2023-07-20T12:14:13;33.70;62.80
7972;DHT22;4031;49.758;6.120;2023-07-20T12:16:39;33.90;58.40
7972;DHT22;4031;49.758;6.120;2023-07-20T12:19:07;33.70;60.40
7972;DHT22;4031;49.758;6.120;2023-07-20T12:21:35;33.50;58.10
7972;DHT22;4031;49.758;6.120;2023-07-20T12:24:05;33.20;58.60
7972;DHT22;4031;49.758;6.120;2023-07-20T12:26:32;32.90;57.20
7972;DHT22;4031;49.758;6.120;2023-07-20T12:28:59;33.30;57.40
7972;DHT22;4031;49.758;6.120;2023-07-20T12:31:26;33.70;56.80
7972;DHT22;4031;49.758;6.120;2023-07-20T12:33:53;33.90;56.70
7972;DHT22;4031;49.758;6.120;2023-07-20T12:36:21;34.30;56.10
7972;DHT22;4031;49.758;6.120;2023-07-20T12:38:47;34.50;54.20
7972;DHT22;4031;49.758;6.120;2023-07-20T12:41:13;34.40;53.80
7972;DHT22;4031;49.758;6.120;2023-07-20T12:43:40;34.80;52.70
7972;DHT22;4031;49.758;6.120;2023-07-20T12:46:06;34.90;53.50
7972;DHT22;4031;49.758;6.120;2023-07-20T12:48:33;33.90;52.80
7972;DHT22;4031;49.758;6.120;2023-07-20T12:50:58;32.80;52.30
7972;DHT22;4031;49.758;6.120;2023-07-20T12:53:24;33.10;51.80
7972;DHT22;4031;49.758;6.120;2023-07-20T12:55:50;33.50;51.50
7972;DHT22;4031;49.758;6.120;2023-07-20T12:58:16;34.00;51.40
7972;DHT22;4031;49.758;6.120;2023-07-20T13:00:41;34.40;50.50
7972;DHT22;4031;49.758;6.120;2023-07-20T13:03:08;34.20;50.60
7972;DHT22;4031;49.758;6.120;2023-07-20T13:05:34;34.20;50.60
7972;DHT22;4031;49.758;6.120;2023-07-20T13:08:01;34.20;50.70
7972;DHT22;4031;49.758;6.120;2023-07-20T13:10:27;34.40;50.90
7972;DHT22;4031;49.758;6.120;2023-07-20T13:12:54;34.40;48.70
7972;DHT22;4031;49.758;6.120;2023-07-20T13:15:20;34.40;49.20
7972;DHT22;4031;49.758;6.120;2023-07-20T13:17:45;34.60;49.10
7972;DHT22;4031;49.758;6.120;2023-07-20T13:20:11;35.00;49.30
7972;DHT22;4031;49.758;6.120;2023-07-20T13:22:38;35.20;48.70
7972;DHT22;4031;49.758;6.120;2023-07-20T13:25:04;35.10;48.30
7972;DHT22;4031;49.758;6.120;2023-07-20T13:27:31;35.40;49.00
7972;DHT22;4031;49.758;6.120;2023-07-20T13:29:58;35.50;47.80
7972;DHT22;4031;49.758;6.120;2023-07-20T13:32:25;34.60;46.30
7972;DHT22;4031;49.758;6.120;2023-07-20T13:34:51;33.30;48.50
7972;DHT22;4031;49.758;6.120;2023-07-20T13:37:17;32.30;48.20
7972;DHT22;4031;49.758;6.120;2023-07-20T13:39:43;31.00;49.60
7972;DHT22;4031;49.758;6.120;2023-07-20T13:42:09;30.10;50.10
7972;DHT22;4031;49.758;6.120;2023-07-20T13:44:36;29.90;50.40
7972;DHT22;4031;49.758;6.120;2023-07-20T13:47:03;29.50;51.30
7972;DHT22;4031;49.758;6.120;2023-07-20T13:49:32;29.10;51.30
7972;DHT22;4031;49.758;6.120;2023-07-20T13:51:58;29.50;51.60
7972;DHT22;4031;49.758;6.120;2023-07-20T13:54:25;30.10;49.20
7972;DHT22;4031;49.758;6.120;2023-07-20T13:56:50;30.40;50.60
7972;DHT22;4031;49.758;6.120;2023-07-20T13:59:19;30.20;50.60
7972;DHT22;4031;49.758;6.120;2023-07-20T14:01:45;29.50;52.40
7972;DHT22;4031;49.758;6.120;2023-07-20T14:04:11;29.10;52.40
7972;DHT22;4031;49.758;6.120;2023-07-20T14:06:37;29.50;52.50
7972;DHT22;4031;49.758;6.120;2023-07-20T14:09:03;29.60;52.90
7972;DHT22;4031;49.758;6.120;2023-07-20T14:11:29;29.40;53.60
7972;DHT22;4031;49.758;6.120;2023-07-20T14:13:55;29.80;51.90
7972;DHT22;4031;49.758;6.120;2023-07-20T14:16:21;30.70;50.60
7972;DHT22;4031;49.758;6.120;2023-07-20T14:18:48;31.60;50.40
7972;DHT22;4031;49.758;6.120;2023-07-20T14:21:18;32.30;49.30
7972;DHT22;4031;49.758;6.120;2023-07-20T14:23:50;32.30;50.20
7972;DHT22;4031;49.758;6.120;2023-07-20T14:26:16;32.30;49.50
7972;DHT22;4031;49.758;6.120;2023-07-20T14:28:42;32.60;49.40
7972;DHT22;4031;49.758;6.120;2023-07-20T14:31:08;33.00;48.40
7972;DHT22;4031;49.758;6.120;2023-07-20T14:33:34;33.40;48.60
7972;DHT22;4031;49.758;6.120;2023-07-20T14:35:59;33.50;47.50
7972;DHT22;4031;49.758;6.120;2023-07-20T14:38:27;32.80;46.70
7972;DHT22;4031;49.758;6.120;2023-07-20T14:40:57;32.70;46.80
7972;DHT22;4031;49.758;6.120;2023-07-20T14:43:22;33.00;46.60
7972;DHT22;4031;49.758;6.120;2023-07-20T14:45:48;32.80;46.60
7972;DHT22;4031;49.758;6.120;2023-07-20T14:48:14;31.90;46.10
7972;DHT22;4031;49.758;6.120;2023-07-20T14:50:40;31.60;46.60
7972;DHT22;4031;49.758;6.120;2023-07-20T14:53:05;31.00;47.50
7972;DHT22;4031;49.758;6.120;2023-07-20T14:55:32;30.20;47.40
7972;DHT22;4031;49.758;6.120;2023-07-20T14:57:57;29.60;48.40
7972;DHT22;4031;49.758;6.120;2023-07-20T15:00:23;29.20;48.10
7972;DHT22;4031;49.758;6.120;2023-07-20T15:02:49;29.80;48.80
7972;DHT22;4031;49.758;6.120;2023-07-20T15:05:24;30.20;50.00
7972;DHT22;4031;49.758;6.120;2023-07-20T15:07:52;30.00;48.40
7972;DHT22;4031;49.758;6.120;2023-07-20T15:10:18;29.40;48.50
7972;DHT22;4031;49.758;6.120;2023-07-20T15:12:44;29.00;49.40
7972;DHT22;4031;49.758;6.120;2023-07-20T15:15:14;29.30;48.80
7972;DHT22;4031;49.758;6.120;2023-07-20T15:17:42;30.30;49.40
7972;DHT22;4031;49.758;6.120;2023-07-20T15:20:10;31.10;49.10
7972;DHT22;4031;49.758;6.120;2023-07-20T15:22:37;31.60;49.00
7972;DHT22;4031;49.758;6.120;2023-07-20T15:25:05;31.80;49.90
7972;DHT22;4031;49.758;6.120;2023-07-20T15:27:32;32.00;49.80
7972;DHT22;4031;49.758;6.120;2023-07-20T15:29:58;31.70;48.70
7972;DHT22;4031;49.758;6.120;2023-07-20T15:32:24;31.50;48.70
7972;DHT22;4031;49.758;6.120;2023-07-20T15:34:49;31.40;48.10
7972;DHT22;4031;49.758;6.120;2023-07-20T15:37:15;31.00;47.80
7972;DHT22;4031;49.758;6.120;2023-07-20T15:39:41;30.70;47.50
7972;DHT22;4031;49.758;6.120;2023-07-20T15:42:07;29.90;47.80
7972;DHT22;4031;49.758;6.120;2023-07-20T15:44:33;29.30;46.80
7972;DHT22;4031;49.758;6.120;2023-07-20T15:46:59;29.00;48.50
7972;DHT22;4031;49.758;6.120;2023-07-20T15:49:24;28.90;47.90
7972;DHT22;4031;49.758;6.120;2023-07-20T15:51:51;28.80;48.50
7972;DHT22;4031;49.758;6.120;2023-07-20T15:54:16;28.60;48.30
7972;DHT22;4031;49.758;6.120;2023-07-20T15:56:44;28.30;49.30
7972;DHT22;4031;49.758;6.120;2023-07-20T15:59:10;28.10;49.00
7972;DHT22;4031;49.758;6.120;2023-07-20T16:01:37;28.10;49.60
7972;DHT22;4031;49.758;6.120;2023-07-20T16:04:04;28.20;48.40
7972;DHT22;4031;49.758;6.120;2023-07-20T16:06:31;28.60;48.20
7972;DHT22;4031;49.758;6.120;2023-07-20T16:08:57;28.70;47.40
7972;DHT22;4031;49.758;6.120;2023-07-20T16:11:23;28.50;47.70
7972;DHT22;4031;49.758;6.120;2023-07-20T16:13:50;28.80;47.90
7972;DHT22;4031;49.758;6.120;2023-07-20T16:16:17;29.00;47.60
7972;DHT22;4031;49.758;6.120;2023-07-20T16:18:43;29.10;46.70
7972;DHT22;4031;49.758;6.120;2023-07-20T16:21:09;29.00;48.00